Time;durP1;ratioP1;P1;durP2;ratioP2;P2;SDS_P1;SDS_P2;PMS_P1;PMS_P2;Temp;Humidity;BMP_temperature;BMP_pressure;BME280_temperature;BME280_humidity;BME280_pressure;Samples;Min_cycle;Max_cycle;Signal;HPM_P1;HPM_P2
2022/06/23 00:01:26;;;;;;;3.65;1.85;;;19.80;60.30;;;;;;5049765;28;20423;-83
2022/06/23 00:03:55;;;;;;;4.78;1.65;;;19.80;60.70;;;;;;5060007;28;20052;-83
2022/06/23 00:06:38;;;;;;;3.78;1.60;;;19.70;60.60;;;;;;5066684;28;20041;-83
2022/06/23 00:09:43;;;;;;;5.82;1.65;;;19.70;60.80;;;;;;5068152;28;20041;-83
2022/06/23 00:12:19;;;;;;;5.13;1.45;;;19.70;60.80;;;;;;5046878;28;20037;-83
2022/06/23 00:15:14;;;;;;;2.25;1.10;;;19.70;61.00;;;;;;5056902;28;20501;-82
2022/06/23 00:17:45;;;;;;;2.95;1.10;;;19.60;61.00;;;;;;5037250;28;20053;-82
2022/06/23 00:20:30;;;;;;;3.50;1.20;;;19.60;61.10;;;;;;5063858;28;20048;-82
2022/06/23 00:23:15;;;;;;;3.95;1.70;;;19.60;61.20;;;;;;5045040;28;20044;-82
2022/06/23 00:26:03;;;;;;;4.18;1.48;;;19.50;61.30;;;;;;5049035;28;20041;-82
2022/06/23 00:28:40;;;;;;;4.57;1.85;;;19.50;61.60;;;;;;5052746;28;20450;-82
2022/06/23 00:31:25;;;;;;;3.17;1.60;;;19.40;61.90;;;;;;5067987;28;20158;-83
2022/06/23 00:33:54;;;;;;;3.67;1.65;;;19.40;61.90;;;;;;5043029;28;20049;-83
2022/06/23 00:36:34;;;;;;;3.47;1.30;;;19.30;62.30;;;;;;5052743;28;20635;-82
2022/06/23 00:39:05;;;;;;;4.40;1.63;;;19.30;62.30;;;;;;5036755;28;20119;-82
2022/06/23 00:41:35;;;;;;;2.97;1.45;;;19.30;62.40;;;;;;5056810;28;20105;-83
2022/06/23 00:44:14;;;;;;;3.10;1.15;;;19.30;62.60;;;;;;5056684;28;20511;-82
2022/06/23 00:46:45;;;;;;;3.75;1.60;;;19.20;62.80;;;;;;5071198;28;20044;-82
2022/06/23 00:49:29;;;;;;;4.68;1.40;;;19.20;63.10;;;;;;5068715;28;20477;-82
2022/06/23 00:52:35;;;;;;;5.60;1.73;;;19.20;63.20;;;;;;5067927;28;20486;-83
2022/06/23 00:55:12;;;;;;;4.03;1.55;;;19.10;63.20;;;;;;5042146;28;20103;-82
2022/06/23 00:57:54;;;;;;;6.15;1.45;;;19.00;63.40;;;;;;5072514;28;20048;-82
2022/06/23 01:00:26;;;;;;;3.15;1.38;;;19.00;63.50;;;;;;5054645;28;20044;-82
2022/06/23 01:03:00;;;;;;;;;;;19.00;63.60;;;;;;5067941;28;20044;-82
2022/06/23 01:05:36;;;;;;;2.95;1.63;;;19.00;63.50;;;;;;5051736;28;19954;-83
2022/06/23 01:08:16;;;;;;;3.83;1.70;;;18.90;63.70;;;;;;5067407;28;20094;-82
2022/06/23 01:10:51;;;;;;;5.57;2.00;;;18.90;64.00;;;;;;5055725;28;20160;-83
2022/06/23 01:13:29;;;;;;;3.05;1.48;;;18.80;64.00;;;;;;5065275;28;20067;-82
2022/06/23 01:16:05;;;;;;;3.88;1.23;;;18.80;64.00;;;;;;5058457;28;20044;-83
2022/06/23 01:18:35;;;;;;;5.70;1.55;;;18.80;64.20;;;;;;5049792;28;20049;-83
2022/06/23 01:21:02;;;;;;;5.13;2.00;;;18.80;64.30;;;;;;5067741;28;20041;-82
2022/06/23 01:24:00;;;;;;;3.25;1.80;;;18.80;64.40;;;;;;5060198;28;20041;-83
2022/06/23 01:26:39;;;;;;;3.97;1.55;;;18.80;64.50;;;;;;5056984;28;20067;-82
2022/06/23 01:29:28;;;;;;;4.10;2.10;;;18.70;65.60;;;;;;5052227;28;20126;-83
2022/06/23 01:32:18;;;;;;;4.63;2.13;;;18.60;65.00;;;;;;5052061;28;20448;-82
2022/06/23 01:34:52;;;;;;;2.88;1.60;;;18.60;65.10;;;;;;5047676;28;20052;-82
2022/06/23 01:37:55;;;;;;;3.97;2.00;;;18.60;65.30;;;;;;5062064;28;20045;-83
2022/06/23 01:40:30;;;;;;;3.55;2.03;;;18.50;65.30;;;;;;5057068;28;20146;-82
2022/06/23 01:43:03;;;;;;;4.70;2.10;;;18.50;65.30;;;;;;5059110;28;20463;-83
2022/06/23 01:45:42;;;;;;;5.45;1.77;;;18.50;65.40;;;;;;5051795;28;20462;-82
2022/06/23 01:51:38;;;;;;;4.20;1.67;;;18.50;65.60;;;;;;5059161;28;20048;-83
2022/06/23 01:54:14;;;;;;;4.07;1.77;;;18.40;65.60;;;;;;5053858;28;20055;-83
2022/06/23 01:57:04;;;;;;;5.90;1.90;;;18.30;65.70;;;;;;5049778;28;20045;-83
2022/06/23 01:59:56;;;;;;;3.70;1.50;;;18.30;65.80;;;;;;5060657;28;20045;-83
2022/06/23 02:02:52;;;;;;;3.78;2.00;;;18.30;65.80;;;;;;5054837;28;20053;-82
2022/06/23 02:05:25;;;;;;;4.55;1.88;;;18.30;65.80;;;;;;5068766;28;20064;-82
2022/06/23 02:08:35;;;;;;;4.65;2.10;;;18.30;65.90;;;;;;5061208;28;20041;-83
2022/06/23 02:11:12;;;;;;;4.55;2.10;;;18.30;66.20;;;;;;5059823;28;20045;-82
2022/06/23 02:14:00;;;;;;;4.15;1.77;;;18.20;66.10;;;;;;5052432;28;20041;-82
2022/06/23 02:16:51;;;;;;;2.55;1.60;;;18.20;66.20;;;;;;5063843;28;20078;-82
2022/06/23 02:19:41;;;;;;;3.33;1.63;;;18.20;66.30;;;;;;5065278;28;20055;-83
2022/06/23 02:22:21;;;;;;;4.88;1.70;;;18.10;66.30;;;;;;5052905;28;20044;-83
2022/06/23 02:25:03;;;;;;;3.47;1.80;;;18.10;66.40;;;;;;5051341;28;20052;-82
2022/06/23 02:27:49;;;;;;;3.35;1.58;;;18.10;66.50;;;;;;5064871;28;20458;-83
2022/06/23 02:30:29;;;;;;;4.00;1.48;;;18.10;66.40;;;;;;5039668;28;20087;-82
2022/06/23 02:33:21;;;;;;;2.67;1.65;;;18.10;66.50;;;;;;5048499;28;20493;-83
2022/06/23 02:36:12;;;;;;;5.10;2.05;;;18.10;66.50;;;;;;5051250;28;20049;-82
2022/06/23 02:38:52;;;;;;;3.35;1.50;;;18.10;66.50;;;;;;5058265;28;20094;-82
2022/06/23 02:41:40;;;;;;;2.90;1.45;;;18.10;66.50;;;;;;5064516;28;20144;-82
2022/06/23 02:44:19;;;;;;;3.72;1.35;;;18.00;66.40;;;;;;5061792;28;20098;-82
2022/06/23 02:46:52;;;;;;;3.65;1.70;;;18.00;66.50;;;;;;5063971;28;20046;-82
2022/06/23 02:49:47;;;;;;;3.60;1.88;;;18.00;66.50;;;;;;5054433;28;20094;-83
2022/06/23 02:52:29;;;;;;;2.42;1.40;;;18.10;66.40;;;;;;5059312;28;20477;-82
2022/06/23 02:55:41;;;;;;;3.55;1.10;;;18.00;66.50;;;;;;5057013;28;20055;-82
2022/06/23 02:58:32;;;;;;;2.88;1.35;;;18.00;66.40;;;;;;5046294;28;20114;-82
2022/06/23 03:01:11;;;;;;;3.30;1.35;;;18.00;66.50;;;;;;5064626;28;20071;-82
2022/06/23 03:04:23;;;;;;;5.68;1.60;;;18.00;66.60;;;;;;5050802;28;20087;-83
2022/06/23 03:07:41;;;;;;;2.10;1.02;;;18.00;66.40;;;;;;4988520;28;20069;-83
2022/06/23 03:10:25;;;;;;;4.43;1.48;;;18.00;66.50;;;;;;4972574;28;20041;-83
2022/06/23 03:13:42;;;;;;;3.05;1.30;;;17.90;66.60;;;;;;5063095;28;20079;-83
2022/06/23 03:16:18;;;;;;;3.50;2.05;;;17.90;66.50;;;;;;4978512;28;20129;-82
2022/06/23 03:19:14;;;;;;;2.75;1.30;;;17.90;66.60;;;;;;4972898;28;20149;-83
2022/06/23 03:21:43;;;;;;;4.65;1.90;;;17.90;66.60;;;;;;5025731;28;20135;-82
2022/06/23 03:24:28;;;;;;;3.05;1.45;;;17.90;66.70;;;;;;5064780;28;20076;-82
2022/06/23 03:27:11;;;;;;;3.88;1.65;;;17.90;66.70;;;;;;5048141;28;20091;-83
2022/06/23 03:29:49;;;;;;;2.88;1.35;;;17.90;66.80;;;;;;5060351;28;20048;-83
2022/06/23 03:32:27;;;;;;;3.50;1.55;;;17.80;66.80;;;;;;5056341;28;20045;-82
2022/06/23 03:35:05;;;;;;;4.15;1.67;;;17.80;66.90;;;;;;5058081;28;20029;-82
2022/06/23 03:37:58;;;;;;;2.85;1.30;;;17.80;66.80;;;;;;5066652;28;20094;-83
2022/06/23 03:43:33;;;;;;;5.40;1.70;;;17.80;66.90;;;;;;5071400;28;20107;-82
2022/06/23 03:46:19;;;;;;;3.47;1.67;;;17.80;67.00;;;;;;5073676;28;20094;-83
2022/06/23 03:48:51;;;;;;;4.18;1.63;;;17.80;67.00;;;;;;5057439;28;20124;-83
2022/06/23 03:51:55;;;;;;;3.17;1.75;;;17.70;67.00;;;;;;5053881;28;20145;-82
2022/06/23 03:54:37;;;;;;;4.63;1.83;;;17.80;67.10;;;;;;5006317;28;20103;-82
2022/06/23 03:57:10;;;;;;;;;;;17.70;67.10;;;;;;5073273;28;20044;-82
2022/06/23 03:59:37;;;;;;;;;;;17.70;67.00;;;;;;5062572;28;19939;-83
2022/06/23 04:02:22;;;;;;;3.65;1.40;;;17.70;67.00;;;;;;5037107;28;19978;-83
2022/06/23 04:05:24;;;;;;;5.25;1.67;;;17.70;67.00;;;;;;5053112;28;20106;-83
2022/06/23 04:08:04;;;;;;;2.67;1.60;;;17.70;66.90;;;;;;4992262;28;20049;-82
2022/06/23 04:10:40;;;;;;;3.22;1.52;;;17.70;67.10;;;;;;5054723;28;20044;-83
2022/06/23 04:13:22;;;;;;;4.65;1.70;;;17.70;67.10;;;;;;5062666;28;20102;-82
2022/06/23 04:15:52;;;;;;;3.20;1.20;;;17.70;67.10;;;;;;5057820;28;20450;-82
2022/06/23 04:18:24;;;;;;;5.50;2.05;;;17.80;67.20;;;;;;5038356;28;20079;-83
2022/06/23 04:21:07;;;;;;;2.92;1.67;;;17.80;67.20;;;;;;5068183;28;20068;-82
2022/06/23 04:23:40;;;;;;;3.85;1.58;;;17.80;67.20;;;;;;5063516;28;20049;-82
2022/06/23 04:26:11;;;;;;;;;;;17.80;67.20;;;;;;5054238;28;20064;-83
2022/06/23 04:28:47;;;;;;;2.17;1.48;;;17.80;67.10;;;;;;5071356;28;19974;-83
2022/06/23 04:31:29;;;;;;;2.92;1.45;;;17.80;67.20;;;;;;5039018;28;20045;-83
2022/06/23 04:33:57;;;;;;;3.20;1.48;;;17.90;67.20;;;;;;5064235;28;20511;-82
2022/06/23 04:36:28;;;;;;;2.95;1.58;;;18.00;67.00;;;;;;5034573;28;20491;-83
2022/06/23 04:39:31;;;;;;;5.05;2.00;;;18.10;66.70;;;;;;5036754;28;20045;-82
2022/06/23 04:42:07;;;;;;;4.13;1.77;;;18.20;66.60;;;;;;5040943;28;20102;-82
2022/06/23 04:44:47;;;;;;;3.40;1.50;;;18.10;66.80;;;;;;5043653;28;20045;-82
2022/06/23 04:47:23;;;;;;;2.38;1.20;;;18.10;66.80;;;;;;5066646;28;20037;-82
2022/06/23 04:50:03;;;;;;;3.47;1.58;;;18.10;66.70;;;;;;5038006;28;20041;-82
2022/06/23 04:52:37;;;;;;;4.20;2.08;;;18.20;66.70;;;;;;5059294;28;20546;-83
2022/06/23 04:55:24;;;;;;;4.05;1.90;;;18.20;66.80;;;;;;5049589;28;20048;-83
2022/06/23 04:57:59;;;;;;;5.13;1.70;;;18.30;66.70;;;;;;5042439;28;20056;-83
2022/06/23 05:00:36;;;;;;;5.68;2.08;;;18.30;66.60;;;;;;5066853;28;20044;-77
2022/06/23 05:03:24;;;;;;;3.10;1.75;;;18.30;66.50;;;;;;5078492;28;20088;-79
2022/06/23 05:06:06;;;;;;;5.13;1.55;;;18.40;66.40;;;;;;5060099;28;20036;-78
2022/06/23 05:08:38;;;;;;;3.03;1.45;;;18.50;66.30;;;;;;5057195;28;20112;-79
2022/06/23 05:11:09;;;;;;;2.20;1.13;;;18.50;66.20;;;;;;5052855;28;20045;-78
2022/06/23 05:13:43;;;;;;;3.83;1.42;;;18.60;66.10;;;;;;5062618;28;20124;-78
2022/06/23 05:16:20;;;;;;;3.47;1.35;;;18.70;66.00;;;;;;5052665;28;20045;-79
2022/06/23 05:18:53;;;;;;;3.75;1.70;;;18.70;65.80;;;;;;5066547;28;20409;-79
2022/06/23 05:21:45;;;;;;;3.13;1.60;;;18.80;65.70;;;;;;5061147;28;20048;-78
2022/06/23 05:24:17;;;;;;;;;;;18.90;65.60;;;;;;5059835;28;20037;-78
2022/06/23 05:26:56;;;;;;;5.13;1.77;;;18.90;65.50;;;;;;5059815;28;19962;-78
2022/06/23 05:29:46;;;;;;;2.80;1.52;;;18.90;65.30;;;;;;5058196;28;20073;-78
2022/06/23 05:32:21;;;;;;;3.83;1.50;;;19.10;65.10;;;;;;5076394;28;20508;-78
2022/06/23 05:34:56;;;;;;;4.68;1.40;;;19.20;65.00;;;;;;5056005;28;20044;-79
2022/06/23 05:37:44;;;;;;;3.95;1.80;;;19.30;64.80;;;;;;5061218;28;20083;-79
2022/06/23 05:40:23;;;;;;;3.10;1.70;;;19.40;64.60;;;;;;5058068;28;20044;-78
2022/06/23 05:42:55;;;;;;;4.57;1.50;;;19.40;64.40;;;;;;5067373;28;20123;-78
2022/06/23 05:45:28;;;;;;;2.33;1.20;;;19.50;64.30;;;;;;5038797;28;20088;-79
2022/06/23 05:47:57;;;;;;;4.10;1.30;;;19.60;64.10;;;;;;5064821;28;20037;-78
2022/06/23 05:50:49;;;;;;;3.20;1.42;;;19.70;63.90;;;;;;5060098;28;20047;-79
2022/06/23 05:53:34;;;;;;;4.05;2.20;;;19.80;63.70;;;;;;5056460;28;20037;-78
2022/06/23 05:56:17;;;;;;;4.85;2.42;;;19.90;63.60;;;;;;5070660;28;20068;-79
2022/06/23 05:58:55;;;;;;;2.75;1.52;;;19.90;63.50;;;;;;5065595;28;20056;-77
2022/06/23 06:01:35;;;;;;;3.13;1.42;;;20.00;63.40;;;;;;5051739;28;20053;-78
2022/06/23 06:04:14;;;;;;;3.17;1.70;;;20.00;63.20;;;;;;5065843;28;20143;-78
2022/06/23 06:06:41;;;;;;;3.65;1.70;;;20.20;63.10;;;;;;5065569;28;20076;-78
2022/06/23 06:11:59;;;;;;;2.25;1.55;;;20.30;62.90;;;;;;5070557;28;20558;-79
2022/06/23 06:14:30;;;;;;;5.88;2.33;;;20.40;62.80;;;;;;5052082;28;20067;-78
2022/06/23 06:17:00;;;;;;;3.60;1.92;;;20.40;62.70;;;;;;5070356;28;20480;-78
2022/06/23 06:19:31;;;;;;;2.63;1.85;;;20.40;62.60;;;;;;5065698;28;20064;-78
2022/06/23 06:22:16;;;;;;;3.03;1.83;;;20.50;62.60;;;;;;5071019;28;20048;-79
2022/06/23 06:24:48;;;;;;;3.38;1.83;;;20.60;62.50;;;;;;5065841;28;20041;-79
2022/06/23 06:27:20;;;;;;;5.00;2.40;;;20.60;62.40;;;;;;5071456;28;20079;-78
2022/06/23 06:29:49;;;;;;;3.15;1.80;;;20.70;62.30;;;;;;5058301;28;20033;-80
2022/06/23 06:32:23;;;;;;;2.58;1.50;;;20.70;62.20;;;;;;5061677;28;20037;-79
2022/06/23 06:35:16;;;;;;;2.50;1.15;;;20.80;62.00;;;;;;5051245;28;20037;-78
2022/06/23 06:37:49;;;;;;;2.92;1.55;;;21.00;61.90;;;;;;5052442;28;20067;-79
2022/06/23 06:40:17;;;;;;;3.13;1.77;;;21.00;61.70;;;;;;5052494;28;20098;-79
2022/06/23 06:43:06;;;;;;;3.58;1.40;;;21.10;61.70;;;;;;5052496;28;20061;-78
2022/06/23 06:45:37;;;;;;;3.28;1.67;;;21.20;61.50;;;;;;5059440;28;20040;-79
2022/06/23 06:48:13;;;;;;;3.83;1.77;;;21.30;61.40;;;;;;5056874;28;20511;-78
2022/06/23 06:50:45;;;;;;;2.63;1.35;;;21.40;61.30;;;;;;5052372;28;20447;-79
2022/06/23 06:53:47;;;;;;;3.03;1.52;;;21.40;61.20;;;;;;5051005;28;20464;-78
2022/06/23 06:56:20;;;;;;;3.50;2.20;;;21.50;61.10;;;;;;5049791;28;20075;-78
2022/06/23 06:59:03;;;;;;;3.83;1.92;;;21.60;61.00;;;;;;5072629;28;20064;-78
2022/06/23 07:01:34;;;;;;;2.58;1.27;;;21.60;60.90;;;;;;5061323;28;20564;-77
2022/06/23 07:04:01;;;;;;;2.88;1.95;;;21.70;60.80;;;;;;5064503;28;20045;-79
2022/06/23 07:06:40;;;;;;;2.75;1.38;;;21.70;60.70;;;;;;5022503;28;20052;-79
2022/06/23 07:09:32;;;;;;;3.88;1.42;;;21.90;60.70;;;;;;5075069;28;20040;-79
2022/06/23 07:12:03;;;;;;;4.25;1.70;;;22.00;60.40;;;;;;5061061;28;20116;-79
2022/06/23 07:14:47;;;;;;;3.17;1.57;;;22.10;60.30;;;;;;5066707;28;20377;-79
2022/06/23 07:17:26;;;;;;;2.25;1.17;;;22.20;60.00;;;;;;5063376;28;20041;-79
2022/06/23 07:20:06;;;;;;;1.83;1.20;;;22.30;59.80;;;;;;5060717;28;20041;-79
2022/06/23 07:22:59;;;;;;;3.53;1.33;;;22.50;59.70;;;;;;5057298;28;20129;-79
2022/06/23 07:25:34;;;;;;;2.83;1.33;;;22.70;59.40;;;;;;5059780;28;20045;-81
2022/06/23 07:28:16;;;;;;;2.10;1.27;;;22.80;59.20;;;;;;5052406;28;20064;-79
2022/06/23 07:30:48;;;;;;;2.42;1.08;;;23.00;59.10;;;;;;5065114;28;20079;-81
2022/06/23 07:33:18;;;;;;;;;;;23.10;58.90;;;;;;5070033;28;20124;-81
2022/06/23 07:35:54;;;;;;;2.88;0.90;;;23.20;58.80;;;;;;5064348;28;19940;-81
2022/06/23 07:38:31;;;;;;;2.78;1.10;;;23.30;58.70;;;;;;5068411;28;20084;-81
2022/06/23 07:41:07;;;;;;;3.20;1.10;;;23.40;58.50;;;;;;5068099;28;20045;-81
2022/06/23 07:43:46;;;;;;;4.13;1.38;;;23.50;58.30;;;;;;5062944;28;20092;-80
2022/06/23 07:46:13;;;;;;;2.22;1.27;;;23.60;58.10;;;;;;5068000;28;20036;-81
2022/06/23 07:48:42;;;;;;;2.05;1.10;;;23.70;58.00;;;;;;5061344;28;20480;-80
2022/06/23 07:51:10;;;;;;;2.28;1.10;;;23.90;57.90;;;;;;5062160;28;20041;-80
2022/06/23 07:53:41;;;;;;;3.03;1.40;;;23.90;57.50;;;;;;5068358;28;20485;-80
2022/06/23 07:56:14;;;;;;;3.25;1.40;;;24.00;57.40;;;;;;5054341;28;20045;-79
2022/06/23 07:58:42;;;;;;;2.53;1.30;;;24.10;57.30;;;;;;5070946;28;20128;-79
2022/06/23 08:01:23;;;;;;;2.55;1.40;;;24.30;57.20;;;;;;5064698;28;20041;-74
2022/06/23 08:04:04;;;;;;;3.63;1.85;;;24.40;57.00;;;;;;5072035;28;20047;-74
2022/06/23 08:06:33;;;;;;;3.10;1.80;;;24.50;57.40;;;;;;5071891;28;20056;-74
2022/06/23 08:09:04;;;;;;;3.05;1.25;;;24.60;56.70;;;;;;5071897;28;20052;-73
2022/06/23 08:14:38;;;;;;;3.95;1.40;;;24.80;56.40;;;;;;5061939;28;20068;-75
2022/06/23 08:17:12;;;;;;;2.65;1.45;;;24.90;56.20;;;;;;5055199;28;20068;-72
2022/06/23 08:19:48;;;;;;;2.90;1.40;;;25.00;56.10;;;;;;5072093;28;20075;-73
2022/06/23 08:22:32;;;;;;;2.22;1.35;;;25.10;56.00;;;;;;5071680;28;20105;-73
2022/06/23 08:25:05;;;;;;;3.08;1.90;;;25.30;55.80;;;;;;5062682;28;20106;-72
2022/06/23 08:27:54;;;;;;;1.90;0.98;;;25.40;55.80;;;;;;5069066;28;20496;-73
2022/06/23 08:30:23;;;;;;;3.45;1.55;;;25.50;55.60;;;;;;5071663;28;20098;-72
2022/06/23 08:32:52;;;;;;;2.25;1.30;;;25.60;55.40;;;;;;5071518;28;20044;-72
2022/06/23 08:35:49;;;;;;;2.05;1.10;;;25.70;55.40;;;;;;5073013;28;20044;-73
2022/06/23 08:38:23;;;;;;;2.47;1.15;;;25.80;55.10;;;;;;5045406;28;20052;-72
2022/06/23 08:41:05;;;;;;;3.72;1.33;;;26.00;55.20;;;;;;5072698;28;20076;-72
2022/06/23 08:43:38;;;;;;;;;;;26.10;55.00;;;;;;5071773;28;20057;-72
2022/06/23 08:46:11;;;;;;;3.05;1.33;;;26.10;55.00;;;;;;5071456;28;19930;-73
2022/06/23 08:49:03;;;;;;;3.08;1.38;;;26.20;54.80;;;;;;5070986;28;20082;-73
2022/06/23 08:51:51;;;;;;;2.67;1.25;;;26.40;54.80;;;;;;5071038;28;20230;-73
2022/06/23 08:54:43;;;;;;;4.25;1.70;;;26.50;54.40;;;;;;5066021;28;20043;-74
2022/06/23 08:57:24;;;;;;;4.60;1.52;;;26.60;54.40;;;;;;5072195;28;20048;-81
2022/06/23 09:00:01;;;;;;;5.55;1.50;;;26.70;54.20;;;;;;5053158;28;20049;-81
2022/06/23 09:03:02;;;;;;;4.57;2.00;;;26.80;54.30;;;;;;5037151;28;20056;-81
2022/06/23 09:05:53;;;;;;;3.10;1.40;;;26.90;54.10;;;;;;5062606;28;20044;-81
2022/06/23 09:08:28;;;;;;;3.15;1.40;;;27.00;54.00;;;;;;5055645;28;20069;-81
2022/06/23 09:11:26;;;;;;;2.20;1.20;;;27.10;53.80;;;;;;5054979;28;20467;-81
2022/06/23 09:14:36;;;;;;;3.28;1.23;;;27.30;53.80;;;;;;5058356;28;20041;-80
2022/06/23 09:17:41;;;;;;;5.03;1.85;;;27.40;53.70;;;;;;5068682;28;20081;-81
2022/06/23 09:20:42;;;;;;;3.42;1.83;;;27.50;53.50;;;;;;5062610;28;20098;-81
2022/06/23 09:23:59;;;;;;;4.50;1.55;;;27.60;53.40;;;;;;5067267;28;20136;-81
2022/06/23 09:26:38;;;;;;;2.45;1.10;;;27.70;53.30;;;;;;5017642;28;20136;-81
2022/06/23 09:29:45;;;;;;;2.42;1.10;;;27.90;53.10;;;;;;5037632;28;20044;-81
2022/06/23 09:32:35;;;;;;;2.28;1.02;;;28.00;53.00;;;;;;5063648;28;20060;-81
2022/06/23 09:35:42;;;;;;;2.28;1.05;;;28.10;52.90;;;;;;5069589;28;20623;-81
2022/06/23 09:38:27;;;;;;;2.70;1.00;;;28.20;52.60;;;;;;5047600;28;20040;-82
2022/06/23 09:41:01;;;;;;;1.50;0.90;;;28.30;52.40;;;;;;5062760;28;20041;-81
2022/06/23 09:44:03;;;;;;;1.58;0.75;;;28.40;52.40;;;;;;5063811;28;20053;-81
2022/06/23 09:46:42;;;;;;;1.42;0.60;;;28.50;52.10;;;;;;5056409;28;20118;-82
2022/06/23 09:49:09;;;;;;;3.17;0.90;;;28.60;52.00;;;;;;5049619;28;20132;-82
2022/06/23 09:52:09;;;;;;;2.40;0.85;;;28.70;51.90;;;;;;5057392;28;20114;-82
2022/06/23 09:54:39;;;;;;;2.90;0.80;;;28.90;51.70;;;;;;5055707;28;20040;-82
2022/06/23 09:57:51;;;;;;;1.95;0.93;;;28.90;51.60;;;;;;5054456;28;20103;-81
2022/06/23 10:00:37;;;;;;;3.13;0.95;;;29.10;51.50;;;;;;5053812;28;20071;-81
2022/06/23 10:03:42;;;;;;;1.77;0.80;;;29.10;51.40;;;;;;5058880;28;20044;-81
2022/06/23 10:06:32;;;;;;;2.17;0.95;;;29.20;51.20;;;;;;5052042;28;20041;-81
2022/06/23 10:09:16;;;;;;;1.75;0.80;;;29.30;51.10;;;;;;5064485;28;20063;-82
2022/06/23 10:12:06;;;;;;;1.77;0.70;;;29.30;50.90;;;;;;5064542;28;20033;-79
2022/06/23 10:14:49;;;;;;;2.80;0.90;;;29.40;50.80;;;;;;5051434;28;20138;-82
2022/06/23 10:17:41;;;;;;;3.03;0.90;;;29.40;50.80;;;;;;5057118;28;20771;-81
2022/06/23 10:20:34;;;;;;;1.77;0.90;;;29.50;50.70;;;;;;5059224;28;20040;-78
2022/06/23 10:23:23;;;;;;;1.90;0.90;;;29.70;50.60;;;;;;5061920;28;20140;-78
2022/06/23 10:26:01;;;;;;;3.42;1.38;;;29.80;50.40;;;;;;5063325;28;20044;-77
2022/06/23 10:28:57;;;;;;;2.42;0.82;;;29.80;50.20;;;;;;5059150;28;20048;-76
2022/06/23 10:32:02;;;;;;;3.67;1.13;;;29.80;50.20;;;;;;5060886;28;20125;-78
2022/06/23 10:35:02;;;;;;;3.28;1.05;;;29.90;50.00;;;;;;5061157;28;20104;-78
2022/06/23 10:37:53;;;;;;;2.95;1.23;;;30.10;50.10;;;;;;5053539;28;20044;-78
2022/06/23 10:40:39;;;;;;;3.53;1.27;;;30.20;49.80;;;;;;5057029;28;20689;-77
2022/06/23 10:43:27;;;;;;;1.35;0.75;;;30.20;49.70;;;;;;5058058;28;20044;-78
2022/06/23 10:45:55;;;;;;;3.38;1.20;;;30.30;49.70;;;;;;5048492;28;20362;-77
2022/06/23 10:48:59;;;;;;;3.75;1.10;;;30.40;49.60;;;;;;5056519;28;20046;-80
2022/06/23 10:51:41;;;;;;;2.53;1.13;;;30.60;49.60;;;;;;5057470;28;20048;-81
2022/06/23 10:54:31;;;;;;;3.65;0.88;;;30.70;49.50;;;;;;5059920;28;20041;-81
2022/06/23 10:57:13;;;;;;;1.23;0.80;;;30.80;49.30;;;;;;5065035;28;20068;-80
2022/06/23 10:59:54;;;;;;;;;;;30.90;49.20;;;;;;5062043;28;20051;-80
2022/06/23 11:02:42;;;;;;;1.63;0.82;;;30.90;49.20;;;;;;5063864;28;20035;-79
2022/06/23 11:05:28;;;;;;;1.45;0.80;;;30.90;49.10;;;;;;5061872;28;20068;-79
2022/06/23 11:08:25;;;;;;;1.50;0.77;;;30.90;48.90;;;;;;5050823;28;20163;-80
2022/06/23 11:11:08;;;;;;;2.72;0.70;;;31.10;48.70;;;;;;5071977;28;20502;-80
2022/06/23 11:13:57;;;;;;;1.88;0.70;;;31.20;48.50;;;;;;5061456;28;20136;-79
2022/06/23 11:16:38;;;;;;;1.25;0.60;;;31.40;48.40;;;;;;5060965;28;20072;-80
2022/06/23 11:19:15;;;;;;;1.15;0.82;;;31.40;48.20;;;;;;5062056;28;20043;-79
2022/06/23 11:22:18;;;;;;;3.85;1.00;;;31.50;48.00;;;;;;5059977;28;20033;-80
2022/06/23 11:25:12;;;;;;;3.25;1.10;;;31.60;47.60;;;;;;5064936;28;20048;-80
2022/06/23 11:27:56;;;;;;;2.72;0.93;;;31.70;47.50;;;;;;5054817;28;20094;-78
2022/06/23 11:31:08;;;;;;;3.28;0.88;;;31.90;47.40;;;;;;5063842;28;20048;-79
2022/06/23 11:33:50;;;;;;;2.47;0.90;;;32.00;47.00;;;;;;5049371;28;20071;-82
2022/06/23 11:36:23;;;;;;;2.28;1.08;;;31.90;46.80;;;;;;5051922;28;20033;-81
2022/06/23 11:39:08;;;;;;;2.90;1.17;;;32.00;46.70;;;;;;5059601;28;20041;-81
2022/06/23 11:42:13;;;;;;;2.17;1.10;;;32.10;46.70;;;;;;5056905;28;20048;-80
2022/06/23 11:44:47;;;;;;;1.75;1.35;;;32.10;46.40;;;;;;5078905;28;20124;-80
2022/06/23 11:47:20;;;;;;;2.22;1.10;;;32.20;46.30;;;;;;5064500;28;20758;-81
2022/06/23 11:49:53;;;;;;;3.22;1.20;;;32.30;46.10;;;;;;5054638;28;20087;-81
2022/06/23 11:52:32;;;;;;;3.33;1.38;;;32.60;45.90;;;;;;5071528;28;20485;-81
2022/06/23 11:55:05;;;;;;;4.93;1.20;;;32.80;45.60;;;;;;5070356;28;20045;-81
2022/06/23 11:58:13;;;;;;;4.03;1.00;;;33.10;45.40;;;;;;5060129;28;20041;-80
2022/06/23 12:00:53;;;;;;;2.72;1.02;;;33.40;44.80;;;;;;5044810;28;20513;-80
2022/06/23 12:03:29;;;;;;;1.48;0.88;;;33.60;44.60;;;;;;5069772;28;20523;-79
2022/06/23 12:06:28;;;;;;;2.53;0.82;;;33.60;44.70;;;;;;5067484;28;20128;-81
2022/06/23 12:09:11;;;;;;;1.83;0.85;;;33.90;44.40;;;;;;5059033;28;20036;-79
2022/06/23 12:11:38;;;;;;;2.75;0.90;;;34.40;44.20;;;;;;5067949;28;20481;-80
2022/06/23 12:14:07;;;;;;;1.63;0.80;;;34.70;43.70;;;;;;5038265;28;20107;-79
2022/06/23 12:16:45;;;;;;;2.35;0.90;;;35.10;43.40;;;;;;5065551;28;20032;-82
2022/06/23 12:19:16;;;;;;;1.38;0.73;;;35.60;43.10;;;;;;5057871;28;20121;-84
2022/06/23 12:21:57;;;;;;;2.53;0.70;;;35.90;42.70;;;;;;5063573;28;20052;-83
2022/06/23 12:25:07;;;;;;;2.40;1.38;;;36.10;42.40;;;;;;5059930;28;20041;-81
2022/06/23 12:27:44;;;;;;;2.97;1.20;;;36.20;42.00;;;;;;5064192;28;20091;-81
2022/06/23 12:30:17;;;;;;;2.30;1.15;;;36.40;41.80;;;;;;5067883;28;20099;-81
2022/06/23 12:33:16;;;;;;;2.83;1.23;;;36.60;41.40;;;;;;5069660;28;20040;-81
2022/06/23 12:35:55;;;;;;;1.77;0.93;;;36.90;41.20;;;;;;5059996;28;20408;-81
2022/06/23 12:38:22;;;;;;;2.70;1.00;;;37.10;41.00;;;;;;5054443;28;20045;-82
2022/06/23 12:41:07;;;;;;;2.03;0.93;;;37.40;40.90;;;;;;5065717;28;20085;-80
2022/06/23 12:43:52;;;;;;;2.30;0.85;;;37.80;40.50;;;;;;5060309;28;20056;-82
2022/06/23 12:46:32;;;;;;;2.10;1.00;;;38.00;40.20;;;;;;5080781;28;20048;-79
2022/06/23 12:49:10;;;;;;;1.73;1.10;;;38.10;40.30;;;;;;5062905;28;20047;-80
2022/06/23 12:51:45;;;;;;;1.85;1.05;;;37.70;40.10;;;;;;5058790;28;20424;-79
2022/06/23 12:54:19;;;;;;;3.63;1.00;;;38.00;40.00;;;;;;5063658;28;20051;-80
2022/06/23 12:57:06;;;;;;;2.55;1.27;;;38.10;39.40;;;;;;5068197;28;20052;-82
2022/06/23 13:00:08;;;;;;;2.58;1.20;;;37.20;40.10;;;;;;5053109;28;20400;-80
2022/06/23 13:02:38;;;;;;;3.22;1.00;;;36.70;40.40;;;;;;4975824;28;20454;-82
2022/06/23 13:05:25;;;;;;;2.07;0.97;;;37.00;40.20;;;;;;5058328;28;20098;-82
2022/06/23 13:08:00;;;;;;;1.83;0.95;;;37.60;39.80;;;;;;5054113;28;20044;-82
2022/06/23 13:11:05;;;;;;;1.70;0.73;;;38.20;39.30;;;;;;5061840;28;20492;-82
2022/06/23 13:13:37;;;;;;;1.75;0.80;;;38.20;38.60;;;;;;5021355;28;20143;-81
2022/06/23 13:16:28;;;;;;;2.72;1.02;;;37.20;39.50;;;;;;5066095;28;20091;-81
2022/06/23 13:19:05;;;;;;;4.30;1.27;;;36.40;40.30;;;;;;5072174;28;20080;-82
2022/06/23 13:21:35;;;;;;;2.55;1.13;;;36.90;40.10;;;;;;5065964;28;20048;-81
2022/06/23 13:24:14;;;;;;;2.25;0.90;;;37.70;39.40;;;;;;5069866;28;20123;-77
2022/06/23 13:27:03;;;;;;;3.30;0.82;;;37.60;39.00;;;;;;5052745;28;20079;-78
2022/06/23 13:30:05;;;;;;;1.88;0.70;;;37.20;39.50;;;;;;5052055;28;20041;-79
2022/06/23 13:33:00;;;;;;;4.45;0.90;;;36.40;40.10;;;;;;5062467;28;20118;-78
2022/06/23 13:35:40;;;;;;;2.58;0.80;;;35.60;40.90;;;;;;5061926;28;20071;-78
2022/06/23 13:38:40;;;;;;;3.00;0.90;;;36.00;41.00;;;;;;5056620;28;20778;-79
2022/06/23 13:41:17;;;;;;;2.88;0.88;;;37.20;39.90;;;;;;5058894;28;20060;-81
2022/06/23 13:43:59;;;;;;;1.55;0.70;;;38.30;39.20;;;;;;5062110;28;20493;-78
2022/06/23 13:46:35;;;;;;;2.50;0.80;;;39.00;38.30;;;;;;5062657;28;20107;-78
2022/06/23 13:49:27;;;;;;;5.25;0.90;;;39.60;37.80;;;;;;5043679;28;20389;-78
2022/06/23 13:52:27;;;;;;;1.33;0.60;;;40.10;37.20;;;;;;5070430;28;20127;-77
2022/06/23 13:54:57;;;;;;;5.18;0.90;;;40.30;37.20;;;;;;5053800;28;20064;-78
2022/06/23 13:57:38;;;;;;;3.60;1.10;;;40.70;36.80;;;;;;5071474;28;20094;-78
2022/06/23 14:00:20;;;;;;;2.83;0.50;;;41.00;36.60;;;;;;5066493;28;20072;-77
2022/06/23 14:03:01;;;;;;;2.20;0.70;;;41.40;36.30;;;;;;5049104;28;20049;-82
2022/06/23 14:05:54;;;;;;;3.03;0.55;;;41.70;36.10;;;;;;5056686;28;20041;-82
2022/06/23 14:08:26;;;;;;;3.60;0.73;;;41.10;35.90;;;;;;5054582;28;20091;-83
2022/06/23 14:11:24;;;;;;;4.88;0.80;;;40.00;36.60;;;;;;5053192;28;20029;-81
2022/06/23 14:14:10;;;;;;;2.80;0.80;;;39.10;37.10;;;;;;5059664;28;20040;-84
2022/06/23 14:17:06;;;;;;;2.35;0.70;;;38.60;37.50;;;;;;5066621;28;20476;-81
2022/06/23 14:19:54;;;;;;;2.40;0.52;;;39.10;37.20;;;;;;5062069;28;20048;-79